LYTV/TIV METAR and TAF weather

Enter ICAO airport designator
Station Type Date Time Source
LYTV METAR 2019/04/18 14:30 UTC NOAA

LYTV 181430Z 28004KT 210V310 9999 FEW053 FEW060TCU 19/06 Q1021 NOSIG


Station Type Date Time Source
LYTV Decoded METAR 2019/04/18 14:30 UTC NOAA

Tivat, Serbia and Montenegro (LYTV) 42-24N 018-44E 5M
Apr 18, 2019 - 10:30 AM EDT / 2019.04.18 1430 UTC
Wind: from the W (280 degrees) at 5 MPH (4 KT) (direction variable):0
Visibility: greater than 7 mile(s):0
Sky conditions: mostly clear
Weather: Towering cumulus clouds observed
Temperature: 66 F (19 C)
Dew Point: 42 F (6 C)
Relative Humidity: 42%
Pressure (altimeter): 30.15 in. Hg (1021 hPa)
ob: LYTV 181430Z 28004KT 210V310 9999 FEW053 FEW060TCU 19/06 Q1021 NOSIG
cycle: 14

Station Type Date Time Source
LYTV TAF 2019/04/18 12:21 UTC NOAA

TAF LYTV 181100Z 1812/1912 02015KT 9999 FEW030 SCT040 TX20/1812Z TN10/1904Z PROB30
TEMPO 1812/1815 23008KT SHRA FEW027TCU SCT033
TEMPO 1820/1902 02015G25KT

Example: see airport list